Terminal Aerodrome Forecast
Issued by NWS

Home | Current Version | Previous Version | Text Only | Print | Product List | Glossary On
Versions: 1 2 3 4 5 6 7 8 9 10 11 12 13 14 15 16 17 18 19 20 21 22
000
FTUS44 KLZK 021700
TAFHRO
TAF
KHRO 021736Z 0218/0318 24010G20KT P6SM BKN035 OVC040
     FM022100 28010G20KT P6SM VCTS BKN035CB OVC100
     FM030000 35005KT P6SM VCTS SCT010CB OVC030
     FM030600 23004KT 6SM -TSRA BKN015CB OVC040
      TEMPO 0308/0312 3SM BR BKN100=

USA.gov is the U.S. government's official web portal to all federal, state and local government web resources and services.